Forside
METAR-TAF:

METAR-TAF

Lufthavne :

Kolkata, Indien

Breddekreds: 22-39N, længdekreds: 088-27E, højde: 4 m

Aktuelle vejr

Denne rapport blev lavet for 17 minutter siden, kl. 17:00 UTC
Vind 4 kt fra øst
Temperatur 26°C
Fugtighed 94%
Tryk 999 hPa
Sigt: 2800 m
Spredte skyer i en højde af 2000 ft
Brudte skyer i en højde af 10000 ft
tåge/dis

METAR: VECC 251700Z 09004KT 2800 HZ SCT020 BKN100 26/25 Q0999 NOSIG

Tid: 22:47 (17:17 UTC)

Vejrudsigter

Denne rapport blev lavet for 3 timer og 17 minutter siden, kl. 14:00 UTC
Foreløbig gælder fra 25 på 15 UTC til 25 på 24 UTC
Vind 7 kt fra syd
Sigt: 2000 m
Spredte skyer i en højde af 1800 ft
Brudte skyer i en højde af 9000 ft
let regn, tåge/dis
Midlertidig
fra 25 på 17 UTC til 25 på 21 UTC
Sigt: 1500 m
Spredte skyer i en højde af 1500 ft
Nogle få skyer i en højde af 2500 ft, Cumulonimbus.
Overskyet i en højde af 8000 ft
tordenbyger, regn

TAF: VECC 251400Z 2515/2524 18007KT 2000 -RA HZ SCT018 BKN090 TEMPO 2517/2521 1500 TSRA SCT015 FEW025CB OVC080

Vejrobservationer og prognoser fra mere end 4000 lufthavne (METAR og TAF).

De gule og røde prikker repræsenterer de meteorologiske stationer.

Flyt musen over at se navnet på stationen.

Så klik over at se vejr observationer og prognoser.

At skifte det kort: Klik på de grønne knapper med et sort kors for at zoome ind; på den grønne knap med en bindestreg for at zoome ud; eller på de grønne pile for tilstødende kort.


METAR-TAF: